Time;durP1;ratioP1;P1;durP2;ratioP2;P2;SDS_P1;SDS_P2;PMS_P1;PMS_P2;Temp;Humidity;BMP_temperature;BMP_pressure;BME280_temperature;BME280_humidity;BME280_pressure;Samples;Min_cycle;Max_cycle;Signal;HPM_P1;HPM_P2
2023/01/02 00:01:23;;;;;;;5.22;2.72;;;9.50;99.90;;;;;;5047587;28;20032;-53
2023/01/02 00:03:48;;;;;;;6.65;3.50;;;9.50;99.90;;;;;;5043385;28;20052;-50
2023/01/02 00:06:16;;;;;;;6.40;2.72;;;9.50;99.90;;;;;;5046071;28;20048;-52
2023/01/02 00:08:42;;;;;;;4.80;2.97;;;9.50;99.90;;;;;;5043960;28;20079;-54
2023/01/02 00:11:07;;;;;;;4.45;2.72;;;9.50;99.90;;;;;;5038390;28;20037;-51
2023/01/02 00:13:33;;;;;;;6.80;2.83;;;9.50;99.90;;;;;;5048772;28;20063;-51
2023/01/02 00:15:58;;;;;;;4.78;2.58;;;9.50;99.90;;;;;;5048933;28;20527;-53
2023/01/02 00:18:24;;;;;;;6.65;2.78;;;9.50;99.90;;;;;;5046415;28;20028;-53
2023/01/02 00:20:49;;;;;;;4.65;2.85;;;9.50;99.90;;;;;;5043331;28;20069;-51
2023/01/02 00:23:15;;;;;;;4.70;2.88;;;9.50;99.90;;;;;;5048888;28;20182;-54
2023/01/02 00:25:41;;;;;;;10.93;2.88;;;9.50;99.90;;;;;;5044005;28;20120;-55
2023/01/02 00:28:09;;;;;;;3.97;2.65;;;9.50;99.90;;;;;;5045228;28;20481;-50
2023/01/02 00:30:37;;;;;;;6.60;2.95;;;9.50;99.90;;;;;;5043750;28;20492;-53
2023/01/02 00:33:03;;;;;;;4.72;2.70;;;9.50;99.90;;;;;;5048571;28;20080;-53
2023/01/02 00:35:30;;;;;;;5.50;3.55;;;9.50;99.90;;;;;;5024968;28;20036;-53
2023/01/02 00:37:55;;;;;;;6.28;2.97;;;9.50;99.90;;;;;;5048975;28;20047;-55
2023/01/02 00:40:21;;;;;;;4.82;2.92;;;9.50;99.90;;;;;;5041180;28;20472;-52
2023/01/02 00:42:46;;;;;;;7.53;3.20;;;9.50;99.90;;;;;;5048808;28;20532;-51
2023/01/02 00:45:12;;;;;;;7.30;2.80;;;9.50;99.90;;;;;;5048416;28;20447;-51
2023/01/02 00:47:37;;;;;;;8.15;2.63;;;9.50;99.90;;;;;;5048091;28;20032;-51
2023/01/02 00:50:04;;;;;;;3.88;2.90;;;9.50;99.90;;;;;;5049148;28;20400;-52
2023/01/02 00:52:29;;;;;;;7.50;2.58;;;9.50;99.90;;;;;;5048735;28;20412;-54
2023/01/02 00:54:56;;;;;;;7.45;2.85;;;9.50;99.90;;;;;;5048866;28;20060;-52
2023/01/02 00:57:21;;;;;;;6.18;3.05;;;9.50;99.90;;;;;;5046365;28;20112;-51
2023/01/02 00:59:47;;;;;;;6.70;2.88;;;9.50;99.90;;;;;;5048243;28;20071;-52
2023/01/02 01:02:12;;;;;;;6.65;3.17;;;9.50;99.90;;;;;;5048716;28;20056;-52
2023/01/02 01:04:38;;;;;;;8.23;3.17;;;9.50;99.90;;;;;;5030219;28;20075;-50
2023/01/02 01:07:03;;;;;;;3.90;2.97;;;9.50;99.90;;;;;;5048890;28;20033;-52
2023/01/02 01:09:29;;;;;;;6.13;3.05;;;9.50;99.90;;;;;;5030251;28;20036;-54
2023/01/02 01:11:54;;;;;;;6.03;3.50;;;9.50;99.90;;;;;;5049046;28;20021;-51
2023/01/02 01:14:20;;;;;;;4.10;2.80;;;9.60;99.90;;;;;;5048538;28;20465;-52
2023/01/02 01:16:46;;;;;;;7.80;3.28;;;9.60;99.90;;;;;;5048238;28;20406;-50
2023/01/02 01:19:12;;;;;;;9.45;3.13;;;9.60;99.90;;;;;;5048783;28;20078;-51
2023/01/02 01:21:37;;;;;;;4.22;3.28;;;9.60;99.90;;;;;;5030819;28;20025;-53
2023/01/02 01:24:03;;;;;;;6.40;2.90;;;9.60;99.90;;;;;;5030835;28;20059;-53
2023/01/02 01:26:29;;;;;;;6.32;3.20;;;9.60;99.90;;;;;;5047944;28;20033;-52
2023/01/02 01:28:55;;;;;;;8.10;3.97;;;9.60;99.90;;;;;;5030709;28;20026;-53
2023/01/02 01:31:22;;;;;;;7.95;3.75;;;9.60;99.90;;;;;;5043556;28;20028;-50
2023/01/02 01:33:48;;;;;;;8.27;3.70;;;9.60;99.90;;;;;;5048463;28;20102;-54
2023/01/02 01:36:19;;;;;;;5.35;3.10;;;9.60;99.90;;;;;;5048032;28;20105;-51
2023/01/02 01:38:45;;;;;;;6.20;4.15;;;9.60;99.90;;;;;;5048166;28;20032;-53
2023/01/02 01:41:13;;;;;;;5.75;3.80;;;9.60;99.90;;;;;;5048093;28;20036;-51
2023/01/02 01:43:48;;;;;;;9.45;3.65;;;9.60;99.90;;;;;;5048111;28;20028;-53
2023/01/02 01:46:42;;;;;;;9.30;3.97;;;9.60;99.90;;;;;;5023894;28;20025;-51
2023/01/02 01:49:14;;;;;;;7.80;4.75;;;9.60;99.90;;;;;;5030948;28;20051;-54
2023/01/02 01:51:51;;;;;;;6.00;3.17;;;9.60;99.90;;;;;;5051923;28;20078;-52
2023/01/02 01:54:23;;;;;;;8.88;4.00;;;9.50;99.90;;;;;;5044062;28;20034;-52
2023/01/02 01:56:54;;;;;;;8.98;3.47;;;9.60;99.90;;;;;;5051705;28;20467;-51
2023/01/02 01:59:20;;;;;;;8.02;3.00;;;9.60;99.90;;;;;;5044702;28;20112;-51
2023/01/02 02:01:48;;;;;;;6.22;3.15;;;9.60;99.90;;;;;;5051800;28;20112;-51
2023/01/02 02:04:15;;;;;;;7.15;3.28;;;9.60;99.90;;;;;;5051585;28;20033;-52
2023/01/02 02:06:40;;;;;;;10.00;3.85;;;9.60;99.90;;;;;;5051200;28;20029;-51
2023/01/02 02:09:16;;;;;;;6.03;4.80;;;9.60;99.90;;;;;;5051293;28;20091;-51
2023/01/02 02:11:43;;;;;;;8.13;3.97;;;9.60;99.90;;;;;;5051158;28;20033;-51
2023/01/02 02:14:09;;;;;;;6.85;4.20;;;9.60;99.90;;;;;;5050440;28;20051;-50
2023/01/02 02:16:53;;;;;;;4.63;3.67;;;9.60;99.90;;;;;;5048472;28;20057;-52
2023/01/02 02:19:31;;;;;;;6.90;4.18;;;9.60;99.90;;;;;;5033658;28;20033;-50
2023/01/02 02:22:26;;;;;;;6.07;4.05;;;9.60;99.90;;;;;;5050701;28;20033;-50
2023/01/02 02:25:02;;;;;;;7.70;4.15;;;9.60;99.90;;;;;;5050794;28;20107;-52
2023/01/02 02:27:39;;;;;;;4.05;3.45;;;9.60;99.90;;;;;;5051448;28;20025;-54
2023/01/02 02:30:08;;;;;;;7.82;3.92;;;9.60;99.90;;;;;;5051197;28;20338;-53
2023/01/02 02:32:44;;;;;;;5.75;4.00;;;9.60;99.90;;;;;;5045844;28;20044;-53
2023/01/02 02:35:39;;;;;;;5.93;3.97;;;9.60;99.90;;;;;;5044370;28;20026;-52
2023/01/02 02:38:20;;;;;;;10.10;4.13;;;9.70;99.90;;;;;;5050873;28;20032;-51
2023/01/02 02:40:49;;;;;;;8.57;4.40;;;9.60;99.90;;;;;;5042717;28;20082;-51
2023/01/02 02:43:27;;;;;;;6.47;3.83;;;9.70;99.90;;;;;;5032082;28;20032;-51
2023/01/02 02:46:18;;;;;;;5.30;3.65;;;9.60;99.90;;;;;;5049989;28;20124;-53
2023/01/02 02:49:21;;;;;;;6.80;4.32;;;9.60;99.90;;;;;;5039198;28;20049;-51
2023/01/02 02:52:01;;;;;;;5.78;3.97;;;9.60;99.90;;;;;;5044520;28;20021;-50
2023/01/02 02:54:32;;;;;;;11.98;4.30;;;9.70;99.90;;;;;;5050682;28;20436;-53
2023/01/02 02:56:59;;;;;;;5.38;3.75;;;9.60;99.90;;;;;;5032157;28;20032;-50
2023/01/02 02:59:25;;;;;;;9.05;3.80;;;9.70;99.90;;;;;;5050209;28;20063;-52
2023/01/02 03:01:51;;;;;;;6.57;3.88;;;9.70;99.90;;;;;;5050920;28;20054;-50
2023/01/02 03:04:18;;;;;;;6.55;4.55;;;9.70;99.90;;;;;;5050897;28;20025;-52
2023/01/02 03:06:53;;;;;;;5.30;3.92;;;9.70;99.90;;;;;;5050003;28;20400;-52
2023/01/02 03:09:40;;;;;;;7.22;4.07;;;9.70;99.90;;;;;;5050317;28;20017;-54
2023/01/02 03:12:11;;;;;;;8.88;4.45;;;9.80;99.90;;;;;;5029333;28;20028;-53
2023/01/02 03:14:49;;;;;;;5.57;4.38;;;9.80;99.90;;;;;;5045411;28;20025;-53
2023/01/02 03:17:32;;;;;;;7.60;4.22;;;9.80;99.90;;;;;;5050485;28;20013;-53
2023/01/02 03:20:05;;;;;;;6.00;4.22;;;9.80;99.90;;;;;;5050379;28;20016;-51
2023/01/02 03:22:35;;;;;;;7.93;4.22;;;9.80;99.90;;;;;;5050447;28;20036;-52
2023/01/02 03:25:03;;;;;;;6.47;3.85;;;9.80;99.90;;;;;;5050111;28;20493;-51
2023/01/02 03:27:33;;;;;;;7.60;3.72;;;9.80;99.90;;;;;;5050195;28;20025;-52
2023/01/02 03:30:05;;;;;;;11.02;4.65;;;9.80;99.90;;;;;;5018740;28;20017;-52
2023/01/02 03:32:42;;;;;;;6.05;4.25;;;9.80;99.90;;;;;;5049182;28;20102;-52
2023/01/02 03:35:14;;;;;;;10.90;4.10;;;9.80;99.90;;;;;;5046487;28;20508;-54
2023/01/02 03:37:45;;;;;;;7.93;4.45;;;9.80;99.90;;;;;;5049529;28;20405;-49
2023/01/02 03:40:17;;;;;;;13.23;4.63;;;9.80;99.90;;;;;;5046254;28;20603;-49
2023/01/02 03:43:15;;;;;;;6.53;3.88;;;9.80;99.90;;;;;;5043257;28;20041;-53
2023/01/02 03:46:19;;;;;;;6.85;4.95;;;9.80;99.90;;;;;;5032406;28;20060;-53
2023/01/02 03:48:52;;;;;;;4.97;3.70;;;9.80;99.90;;;;;;4985452;28;20034;-51
2023/01/02 03:51:18;;;;;;;6.95;4.47;;;9.80;99.90;;;;;;5031982;28;20033;-51
2023/01/02 03:53:44;;;;;;;8.43;4.45;;;9.80;99.90;;;;;;5043293;28;20027;-53
2023/01/02 03:56:34;;;;;;;11.27;5.05;;;9.80;99.90;;;;;;5048919;28;20021;-52
2023/01/02 03:59:11;;;;;;;6.97;4.43;;;9.90;99.90;;;;;;5045062;28;20036;-52
2023/01/02 04:01:50;;;;;;;6.82;3.92;;;9.90;99.90;;;;;;5043138;28;20108;-52
2023/01/02 04:04:45;;;;;;;5.60;4.43;;;9.90;99.90;;;;;;5042815;28;20492;-52
2023/01/02 04:07:18;;;;;;;6.35;3.90;;;9.90;99.90;;;;;;5040586;28;20381;-51
2023/01/02 04:09:45;;;;;;;9.40;4.43;;;9.90;99.90;;;;;;5048555;28;20032;-51
2023/01/02 04:12:15;;;;;;;9.15;4.75;;;9.90;99.90;;;;;;5040723;28;20412;-54
2023/01/02 04:14:45;;;;;;;8.38;5.07;;;9.90;99.90;;;;;;5046764;28;20032;-50
2023/01/02 04:17:13;;;;;;;8.43;4.22;;;10.00;99.90;;;;;;5031862;28;20033;-54
2023/01/02 04:20:02;;;;;;;7.28;3.70;;;10.00;99.90;;;;;;5031397;28;20055;-52
2023/01/02 04:22:31;;;;;;;8.60;5.50;;;10.10;99.90;;;;;;5046117;28;20045;-50
2023/01/02 04:25:06;;;;;;;6.35;3.83;;;10.10;99.90;;;;;;5045635;28;20098;-51
2023/01/02 04:27:35;;;;;;;5.35;4.13;;;10.10;99.90;;;;;;5037377;28;20052;-54
2023/01/02 04:30:01;;;;;;;9.82;4.28;;;10.10;99.90;;;;;;5041730;28;20033;-52
2023/01/02 04:32:53;;;;;;;10.63;5.05;;;10.10;99.90;;;;;;5049105;28;20041;-52
2023/01/02 04:35:21;;;;;;;6.80;4.68;;;10.10;99.90;;;;;;5044306;28;20241;-51
2023/01/02 04:37:47;;;;;;;8.55;4.80;;;10.20;99.90;;;;;;5018175;28;20281;-52
2023/01/02 04:40:29;;;;;;;8.15;3.95;;;10.20;99.90;;;;;;5039477;28;20044;-50
2023/01/02 04:42:55;;;;;;;6.72;4.30;;;10.20;99.90;;;;;;5047951;28;20025;-50
2023/01/02 04:45:21;;;;;;;10.38;4.15;;;10.30;99.90;;;;;;5048600;28;20061;-50
2023/01/02 04:47:47;;;;;;;13.30;4.13;;;10.30;99.90;;;;;;5047587;28;20071;-52
2023/01/02 04:50:13;;;;;;;7.28;4.80;;;10.40;99.90;;;;;;5048135;28;20025;-51
2023/01/02 04:52:39;;;;;;;8.20;4.72;;;10.50;99.90;;;;;;5041659;28;20025;-51
2023/01/02 04:55:07;;;;;;;11.93;4.13;;;10.50;99.90;;;;;;5048394;28;20408;-52
2023/01/02 04:57:33;;;;;;;8.95;4.72;;;10.50;99.90;;;;;;5047832;28;20029;-54
2023/01/02 04:59:58;;;;;;;7.72;4.30;;;10.60;99.90;;;;;;5049007;28;20086;-50
2023/01/02 05:02:24;;;;;;;4.80;3.63;;;10.60;99.90;;;;;;5048863;28;20108;-51
2023/01/02 05:04:50;;;;;;;8.60;4.07;;;10.70;99.90;;;;;;5048261;28;20029;-53
2023/01/02 05:07:15;;;;;;;8.55;4.50;;;10.70;99.90;;;;;;5048612;28;20021;-51
2023/01/02 05:09:41;;;;;;;10.82;4.00;;;10.70;99.90;;;;;;5048030;28;20078;-50
2023/01/02 05:12:06;;;;;;;8.07;3.80;;;10.70;99.90;;;;;;5030907;28;20036;-54
2023/01/02 05:14:32;;;;;;;10.27;4.75;;;10.80;99.90;;;;;;5048357;28;20032;-54
2023/01/02 05:16:57;;;;;;;10.52;3.92;;;10.80;99.90;;;;;;5049170;28;20065;-53
2023/01/02 05:19:23;;;;;;;9.73;5.00;;;10.80;99.90;;;;;;5031214;28;20384;-52
2023/01/02 05:24:32;;;;;;;7.55;3.60;;;10.80;99.90;;;;;;5048944;28;20421;-51
2023/01/02 05:26:58;;;;;;;8.48;4.68;;;10.80;99.90;;;;;;5052556;28;20029;-53
2023/01/02 05:29:24;;;;;;;8.45;4.30;;;10.80;99.90;;;;;;5034632;28;20037;-52
2023/01/02 05:31:49;;;;;;;8.82;4.00;;;10.80;99.90;;;;;;5051826;28;20100;-51
2023/01/02 05:34:15;;;;;;;8.85;4.55;;;10.80;99.90;;;;;;5047239;28;20103;-55
2023/01/02 05:36:41;;;;;;;6.88;4.25;;;10.90;99.90;;;;;;5051401;28;20489;-54
2023/01/02 05:39:12;;;;;;;8.10;3.85;;;10.90;99.90;;;;;;5033948;28;20094;-54
2023/01/02 05:41:38;;;;;;;12.35;4.22;;;10.90;99.90;;;;;;5051452;28;20085;-55
2023/01/02 05:44:07;;;;;;;5.95;3.97;;;10.90;99.90;;;;;;5052072;28;20056;-54
2023/01/02 05:46:33;;;;;;;6.65;3.38;;;10.90;99.90;;;;;;5043508;28;20412;-55
2023/01/02 05:48:59;;;;;;;9.82;3.97;;;10.90;99.90;;;;;;5048689;28;20117;-51
2023/01/02 05:51:24;;;;;;;8.73;4.32;;;10.90;99.90;;;;;;5049577;28;20104;-51
2023/01/02 05:53:52;;;;;;;8.57;4.47;;;10.90;99.90;;;;;;5044120;28;20033;-52
2023/01/02 05:56:20;;;;;;;9.15;4.68;;;11.00;99.90;;;;;;5049999;28;20029;-52
2023/01/02 05:58:49;;;;;;;10.27;4.38;;;11.00;99.90;;;;;;5046469;28;20124;-54
2023/01/02 06:01:20;;;;;;;6.65;4.05;;;11.00;99.90;;;;;;5049302;28;20025;-53
2023/01/02 06:03:47;;;;;;;6.88;4.75;;;11.00;99.90;;;;;;5051408;28;20029;-56
2023/01/02 06:06:14;;;;;;;6.40;4.43;;;11.00;99.90;;;;;;5047696;28;20095;-56
2023/01/02 06:08:39;;;;;;;9.70;4.50;;;11.00;99.90;;;;;;5044843;28;20044;-55
2023/01/02 06:11:06;;;;;;;9.23;4.57;;;11.00;99.90;;;;;;5049416;28;20484;-52
2023/01/02 06:13:34;;;;;;;6.75;4.05;;;11.00;99.90;;;;;;5031065;28;20059;-53
2023/01/02 06:16:00;;;;;;;7.82;3.97;;;11.10;99.90;;;;;;5047805;28;20040;-51
2023/01/02 06:18:27;;;;;;;6.43;4.57;;;11.10;99.90;;;;;;5043193;28;20059;-52
2023/01/02 06:20:58;;;;;;;10.63;4.20;;;11.10;99.90;;;;;;5051512;28;20783;-54
2023/01/02 06:23:24;;;;;;;9.43;4.10;;;11.10;99.90;;;;;;5050208;28;20025;-53
2023/01/02 06:25:49;;;;;;;8.50;4.43;;;11.10;99.90;;;;;;5050157;28;20590;-53
2023/01/02 06:28:15;;;;;;;8.68;3.97;;;11.10;99.90;;;;;;5051426;28;20059;-52
2023/01/02 06:30:40;;;;;;;8.02;4.45;;;11.20;99.90;;;;;;5033134;28;20059;-54
2023/01/02 06:33:06;;;;;;;8.55;4.90;;;11.20;99.90;;;;;;5051215;28;20013;-52
2023/01/02 06:35:31;;;;;;;8.15;4.97;;;11.20;99.90;;;;;;5050731;28;20578;-51
2023/01/02 06:37:57;;;;;;;5.10;3.90;;;11.20;99.90;;;;;;5050433;28;20098;-51
2023/01/02 06:40:22;;;;;;;8.07;4.70;;;11.20;99.90;;;;;;5050687;28;20523;-51
2023/01/02 06:42:48;;;;;;;8.68;4.82;;;11.20;99.90;;;;;;5050761;28;20471;-53
2023/01/02 06:45:14;;;;;;;8.88;5.05;;;11.20;99.90;;;;;;5049891;28;20120;-53
2023/01/02 06:47:39;;;;;;;8.55;5.38;;;11.20;99.90;;;;;;5050342;28;20039;-54
2023/01/02 06:50:05;;;;;;;9.48;4.55;;;11.20;99.90;;;;;;5050685;28;20528;-53
2023/01/02 06:52:31;;;;;;;7.93;4.70;;;11.20;99.90;;;;;;5047026;28;20025;-53
2023/01/02 06:54:56;;;;;;;6.40;4.57;;;11.30;99.90;;;;;;5045275;28;20501;-54
2023/01/02 06:57:22;;;;;;;7.07;4.15;;;11.20;99.90;;;;;;5049046;28;20509;-52
2023/01/02 06:59:47;;;;;;;11.48;5.65;;;11.30;99.90;;;;;;5050710;28;20072;-54
2023/01/02 07:02:14;;;;;;;9.13;4.53;;;11.30;99.90;;;;;;5050563;28;20021;-51
2023/01/02 07:04:39;;;;;;;7.13;4.75;;;11.30;99.90;;;;;;5050215;28;20139;-53
2023/01/02 07:07:05;;;;;;;9.40;5.80;;;11.30;99.90;;;;;;5050671;28;20025;-52
2023/01/02 07:09:31;;;;;;;7.57;5.03;;;11.30;99.90;;;;;;5032518;28;20414;-54
2023/01/02 07:11:59;;;;;;;9.35;4.80;;;11.30;99.90;;;;;;5032836;28;20041;-52
2023/01/02 07:14:25;;;;;;;8.05;4.57;;;11.30;99.90;;;;;;5050077;28;20025;-53
2023/01/02 07:16:51;;;;;;;8.88;4.93;;;11.30;99.90;;;;;;5050011;28;20047;-52
2023/01/02 07:19:16;;;;;;;9.85;4.97;;;11.30;99.90;;;;;;5050154;28;20036;-51
2023/01/02 07:21:42;;;;;;;8.30;4.80;;;11.30;99.90;;;;;;5050159;28;20044;-54
2023/01/02 07:24:12;;;;;;;7.38;4.72;;;11.30;99.90;;;;;;5050370;28;20033;-51
2023/01/02 07:26:38;;;;;;;15.35;5.18;;;11.30;99.90;;;;;;5042340;28;20032;-52
2023/01/02 07:29:04;;;;;;;8.52;4.78;;;11.30;99.90;;;;;;5050368;28;20649;-52
2023/01/02 07:31:29;;;;;;;9.38;5.82;;;11.30;99.90;;;;;;5049095;28;20029;-54
2023/01/02 07:33:56;;;;;;;8.27;5.40;;;11.30;99.90;;;;;;5048566;28;20025;-53
2023/01/02 07:36:23;;;;;;;10.93;5.25;;;11.30;99.90;;;;;;5049062;28;20397;-52
2023/01/02 07:38:53;;;;;;;12.75;6.15;;;11.30;99.90;;;;;;5050135;28;20527;-52
2023/01/02 07:41:22;;;;;;;8.18;5.18;;;11.40;99.90;;;;;;5049874;28;20032;-53
2023/01/02 07:43:48;;;;;;;10.85;5.97;;;11.40;99.90;;;;;;5049296;28;20029;-55
2023/01/02 07:46:16;;;;;;;8.00;5.82;;;11.40;99.90;;;;;;5049322;28;20053;-52
2023/01/02 07:48:41;;;;;;;9.75;5.55;;;11.40;99.90;;;;;;5031633;28;20392;-52
2023/01/02 07:51:08;;;;;;;10.40;5.38;;;11.40;99.90;;;;;;5049642;28;20025;-53
2023/01/02 07:53:34;;;;;;;11.05;5.50;;;11.40;99.90;;;;;;5050122;28;20021;-56
2023/01/02 07:56:00;;;;;;;11.93;5.88;;;11.40;99.90;;;;;;5049107;28;20025;-54
2023/01/02 07:58:26;;;;;;;10.07;5.18;;;11.40;99.90;;;;;;5046077;28;20029;-54
2023/01/02 08:00:53;;;;;;;7.18;5.20;;;11.40;99.90;;;;;;5047774;28;20120;-54
2023/01/02 08:03:19;;;;;;;7.78;5.43;;;11.40;99.90;;;;;;5049547;28;20078;-55
2023/01/02 08:05:44;;;;;;;6.13;4.13;;;11.50;99.90;;;;;;5048843;28;20132;-56
2023/01/02 08:08:13;;;;;;;13.48;5.90;;;11.40;99.90;;;;;;5031724;28;20211;-55
2023/01/02 08:10:39;;;;;;;6.57;5.35;;;11.40;99.90;;;;;;5030205;28;20048;-52
2023/01/02 08:13:05;;;;;;;9.20;4.88;;;11.50;99.90;;;;;;5031496;28;20462;-52
2023/01/02 08:15:32;;;;;;;9.30;5.25;;;11.40;99.90;;;;;;5048572;28;20040;-52
2023/01/02 08:17:57;;;;;;;8.35;4.47;;;11.50;99.90;;;;;;5045850;28;20108;-51
2023/01/02 08:20:24;;;;;;;9.30;4.78;;;11.50;99.90;;;;;;5049176;28;20159;-50
2023/01/02 08:22:50;;;;;;;7.15;4.75;;;11.50;99.90;;;;;;5049143;28;20060;-53
2023/01/02 08:25:16;;;;;;;8.60;5.10;;;11.50;99.90;;;;;;5048820;28;20781;-52
2023/01/02 08:27:41;;;;;;;8.68;5.20;;;11.50;99.90;;;;;;5049016;28;20029;-54
2023/01/02 08:30:08;;;;;;;9.10;5.30;;;11.50;99.90;;;;;;5047717;28;20021;-54
2023/01/02 08:32:38;;;;;;;5.35;4.85;;;11.50;99.90;;;;;;5045075;28;20025;-52
2023/01/02 08:35:05;;;;;;;6.47;5.38;;;11.50;99.90;;;;;;5043113;28;20047;-55
2023/01/02 08:37:31;;;;;;;7.25;4.45;;;11.50;99.90;;;;;;5048803;28;20049;-55
2023/01/02 08:39:56;;;;;;;7.40;4.78;;;11.60;99.90;;;;;;5048655;28;20118;-56
2023/01/02 08:42:22;;;;;;;6.45;4.85;;;11.50;99.90;;;;;;5048842;28;20021;-56
2023/01/02 08:44:47;;;;;;;7.28;5.13;;;11.60;99.90;;;;;;5048601;28;20064;-54
2023/01/02 08:47:13;;;;;;;9.18;4.80;;;11.60;99.90;;;;;;5048474;28;20033;-54
2023/01/02 08:49:39;;;;;;;5.75;4.32;;;11.60;99.90;;;;;;5103176;23;20054;-61
2023/01/02 08:52:04;;;;;;;9.05;5.13;;;11.60;99.90;;;;;;5008994;28;20029;-61
2023/01/02 08:54:30;;;;;;;6.28;4.82;;;11.60;99.90;;;;;;5011231;28;20026;-61
2023/01/02 08:56:55;;;;;;;7.47;5.20;;;11.70;99.90;;;;;;5012727;28;20104;-60
2023/01/02 08:59:23;;;;;;;8.55;4.93;;;11.70;99.90;;;;;;5013218;28;20108;-61
2023/01/02 09:01:49;;;;;;;7.93;5.82;;;11.70;99.90;;;;;;5011195;28;20026;-62
2023/01/02 09:04:15;;;;;;;7.72;5.45;;;11.70;99.90;;;;;;5007664;28;20028;-61
2023/01/02 09:06:41;;;;;;;10.10;5.47;;;11.70;99.90;;;;;;5013349;28;20569;-61
2023/01/02 09:09:08;;;;;;;5.68;5.10;;;11.70;99.90;;;;;;5012288;28;20025;-62
2023/01/02 09:11:36;;;;;;;6.70;5.00;;;11.70;99.90;;;;;;5008685;28;20029;-61
2023/01/02 09:14:04;;;;;;;9.77;4.95;;;11.80;99.90;;;;;;5011799;28;20026;-61
2023/01/02 09:16:30;;;;;;;7.97;5.97;;;11.80;99.90;;;;;;5011279;28;20485;-61
2023/01/02 09:18:58;;;;;;;6.82;4.90;;;11.80;99.90;;;;;;5010735;28;20096;-61
2023/01/02 09:21:24;;;;;;;10.07;5.45;;;11.80;99.90;;;;;;5011973;28;20113;-61
2023/01/02 09:23:49;;;;;;;7.80;5.10;;;11.80;99.90;;;;;;4992239;28;20026;-61
2023/01/02 09:26:15;;;;;;;11.30;6.13;;;11.80;99.90;;;;;;5005503;28;20576;-61
2023/01/02 09:28:41;;;;;;;5.90;5.03;;;11.80;99.90;;;;;;5008949;28;20026;-61
2023/01/02 09:31:10;;;;;;;10.32;6.15;;;11.90;99.90;;;;;;5011115;28;20087;-61
2023/01/02 09:33:36;;;;;;;10.45;5.65;;;11.90;99.90;;;;;;5008216;28;20709;-60
2023/01/02 09:36:06;;;;;;;7.72;5.75;;;11.90;99.90;;;;;;5012184;28;20148;-61
2023/01/02 09:38:32;;;;;;;6.88;5.55;;;11.90;99.90;;;;;;5004622;28;20046;-61
2023/01/02 09:41:00;;;;;;;10.00;5.60;;;11.90;99.90;;;;;;4998930;28;20061;-61
2023/01/02 09:43:39;;;;;;;9.57;4.88;;;11.90;99.90;;;;;;5006072;28;20030;-60
2023/01/02 09:46:12;;;;;;;10.27;5.28;;;11.90;99.90;;;;;;5011951;28;20030;-60
2023/01/02 09:48:37;;;;;;;12.40;6.80;;;11.90;99.90;;;;;;5005288;28;20031;-61
2023/01/02 09:51:05;;;;;;;8.48;5.22;;;11.90;99.90;;;;;;5010215;28;20087;-61
2023/01/02 09:53:34;;;;;;;7.50;4.30;;;11.90;99.90;;;;;;5008977;28;20044;-60
2023/01/02 09:56:11;;;;;;;5.75;4.65;;;11.90;99.90;;;;;;5011772;28;20034;-63
2023/01/02 09:58:50;;;;;;;8.32;4.45;;;12.00;99.90;;;;;;5001939;28;20031;-61
2023/01/02 10:01:21;;;;;;;8.40;4.45;;;12.00;99.90;;;;;;5002521;28;20029;-61
2023/01/02 10:03:58;;;;;;;6.93;4.03;;;12.00;99.90;;;;;;5006816;28;20061;-61
2023/01/02 10:06:40;;;;;;;6.15;4.65;;;12.00;99.90;;;;;;5008750;28;20026;-61
2023/01/02 10:09:33;;;;;;;7.38;4.32;;;12.00;99.90;;;;;;5011158;28;20021;-61
2023/01/02 10:12:11;;;;;;;9.93;4.95;;;12.00;99.90;;;;;;5001619;28;20033;-61
2023/01/02 10:14:55;;;;;;;8.77;4.63;;;12.10;99.90;;;;;;5002784;28;20056;-60
2023/01/02 10:17:23;;;;;;;8.40;4.60;;;12.10;99.90;;;;;;4990918;28;20018;-61
2023/01/02 10:19:59;;;;;;;7.20;5.07;;;12.10;99.90;;;;;;5005768;28;20105;-60
2023/01/02 10:22:32;;;;;;;7.30;4.40;;;12.10;99.90;;;;;;5004145;28;20080;-60
2023/01/02 10:25:14;;;;;;;7.55;4.10;;;12.20;99.90;;;;;;5003553;28;20072;-61
2023/01/02 10:27:51;;;;;;;11.48;4.55;;;12.20;99.90;;;;;;5001816;28;20045;-60
2023/01/02 10:30:19;;;;;;;5.85;4.15;;;12.20;99.90;;;;;;5010051;28;20018;-61
2023/01/02 10:32:54;;;;;;;5.50;3.78;;;12.20;99.90;;;;;;5006614;28;20109;-61
2023/01/02 10:35:43;;;;;;;6.28;4.00;;;12.20;99.90;;;;;;5008408;28;20069;-60
2023/01/02 10:38:15;;;;;;;5.53;3.55;;;12.20;99.90;;;;;;5003831;28;20034;-60
2023/01/02 10:40:46;;;;;;;10.60;3.95;;;12.20;99.90;;;;;;5009068;28;20045;-60
2023/01/02 10:43:13;;;;;;;5.82;3.70;;;12.20;99.90;;;;;;5005973;28;20029;-61
2023/01/02 10:45:39;;;;;;;5.15;3.75;;;12.20;99.90;;;;;;4991499;28;20034;-61
2023/01/02 10:48:05;;;;;;;7.07;4.30;;;12.20;99.90;;;;;;5004965;28;20037;-62
2023/01/02 10:50:45;;;;;;;6.45;3.80;;;12.20;99.90;;;;;;5006384;28;20033;-61
2023/01/02 10:53:28;;;;;;;5.78;3.80;;;12.20;99.90;;;;;;5010669;28;20037;-61
2023/01/02 10:55:54;;;;;;;5.18;3.50;;;12.20;99.90;;;;;;5007851;28;20025;-61
2023/01/02 10:58:22;;;;;;;6.55;3.88;;;12.20;99.90;;;;;;5010405;28;20548;-61
2023/01/02 11:00:51;;;;;;;5.05;3.65;;;12.10;99.90;;;;;;5005057;28;20040;-61
2023/01/02 11:03:21;;;;;;;4.35;3.58;;;12.10;99.90;;;;;;5002878;28;20034;-62
2023/01/02 11:05:50;;;;;;;5.38;4.13;;;12.10;99.90;;;;;;4997129;28;20030;-62
2023/01/02 11:08:20;;;;;;;5.55;3.88;;;12.00;99.90;;;;;;5005612;28;20022;-63
2023/01/02 11:10:46;;;;;;;6.50;3.53;;;12.00;99.90;;;;;;5002113;28;20100;-63
2023/01/02 11:13:14;;;;;;;4.80;3.90;;;12.00;99.90;;;;;;5006177;28;20494;-61
2023/01/02 11:15:55;;;;;;;4.65;3.97;;;11.90;99.90;;;;;;4999801;28;20064;-60
2023/01/02 11:18:24;;;;;;;3.97;3.58;;;11.90;99.90;;;;;;5003683;28;20490;-60
2023/01/02 11:20:53;;;;;;;5.28;3.08;;;11.90;99.90;;;;;;5000669;28;20367;-61
2023/01/02 11:23:24;;;;;;;6.80;3.22;;;11.90;99.90;;;;;;5003334;28;20049;-62
2023/01/02 11:25:51;;;;;;;6.13;3.25;;;11.80;99.90;;;;;;5004359;28;20036;-61
2023/01/02 11:28:30;;;;;;;4.07;3.35;;;11.80;99.90;;;;;;4988987;28;20022;-62
2023/01/02 11:31:15;;;;;;;2.17;1.30;;;11.70;99.90;;;;;;5002621;28;20022;-60
2023/01/02 11:33:42;;;;;;;2.00;1.17;;;11.60;99.90;;;;;;5009763;28;20029;-61
2023/01/02 11:36:11;;;;;;;1.55;0.82;;;11.40;99.90;;;;;;5002977;28;20021;-61
2023/01/02 11:38:47;;;;;;;0.73;0.65;;;11.30;99.90;;;;;;5004760;28;20112;-61
2023/01/02 11:44:37;;;;;;;0.65;0.60;;;11.00;99.90;;;;;;5006480;28;20037;-60
2023/01/02 11:47:04;;;;;;;0.43;0.40;;;10.90;99.90;;;;;;5003686;28;20030;-58
2023/01/02 11:49:41;;;;;;;1.55;0.60;;;10.80;99.90;;;;;;5001851;28;20034;-60
2023/01/02 11:52:13;;;;;;;1.15;0.80;;;10.70;99.90;;;;;;5006687;28;20033;-60
2023/01/02 11:54:45;;;;;;;0.95;0.90;;;10.60;99.90;;;;;;5007672;28;20033;-60
2023/01/02 11:57:33;;;;;;;1.58;1.08;;;10.50;99.90;;;;;;4990916;28;20030;-63
2023/01/02 12:00:01;;;;;;;0.80;0.80;;;10.50;99.90;;;;;;5007683;28;20497;-60
2023/01/02 12:02:37;;;;;;;1.00;0.70;;;10.30;99.90;;;;;;5007395;28;20378;-60
2023/01/02 12:05:17;;;;;;;0.65;0.60;;;10.30;99.90;;;;;;5007771;28;20072;-60
2023/01/02 12:07:53;;;;;;;0.93;0.73;;;10.10;99.90;;;;;;5007642;28;20108;-61
2023/01/02 12:10:43;;;;;;;0.93;0.60;;;10.10;99.90;;;;;;4990072;28;20084;-60
2023/01/02 12:13:33;;;;;;;1.20;0.60;;;10.00;99.90;;;;;;4987815;28;20394;-61
2023/01/02 12:16:17;;;;;;;0.68;0.60;;;9.90;99.90;;;;;;5003691;28;20047;-62
2023/01/02 12:19:04;;;;;;;0.75;0.75;;;9.90;99.90;;;;;;5005384;28;20084;-61
2023/01/02 12:21:42;;;;;;;0.60;0.50;;;9.80;99.90;;;;;;5004079;28;20030;-61
2023/01/02 12:24:29;;;;;;;0.88;0.80;;;9.70;99.90;;;;;;5005546;28;20108;-61
2023/01/02 12:27:20;;;;;;;1.17;1.08;;;9.60;99.90;;;;;;4986598;28;20030;-61
2023/01/02 12:30:06;;;;;;;1.55;1.13;;;9.60;99.90;;;;;;4965292;28;20040;-60
2023/01/02 12:32:52;;;;;;;2.00;0.90;;;9.60;99.90;;;;;;5002470;28;20026;-60
2023/01/02 12:35:33;;;;;;;1.95;1.25;;;9.50;99.90;;;;;;4996330;28;20415;-61
2023/01/02 12:38:04;;;;;;;1.33;1.10;;;9.50;99.90;;;;;;4991094;28;20084;-62
2023/01/02 12:40:39;;;;;;;1.73;1.20;;;9.40;99.90;;;;;;5009375;28;20041;-61
2023/01/02 12:43:13;;;;;;;1.05;0.90;;;9.40;99.90;;;;;;4997460;28;20032;-61
2023/01/02 12:45:38;;;;;;;1.27;1.00;;;9.20;99.90;;;;;;5007758;28;20038;-61
2023/01/02 12:48:07;;;;;;;2.88;0.90;;;9.30;99.90;;;;;;5005607;28;20048;-61
2023/01/02 12:51:02;;;;;;;1.92;0.90;;;9.20;99.90;;;;;;5005962;28;20022;-61
2023/01/02 12:53:55;;;;;;;2.67;1.20;;;9.20;99.90;;;;;;5006712;28;20023;-61
2023/01/02 12:56:40;;;;;;;2.60;1.30;;;9.20;99.90;;;;;;5006599;28;20061;-60
2023/01/02 12:59:24;;;;;;;2.10;0.63;;;9.20;99.90;;;;;;5004446;28;20030;-61
2023/01/02 13:02:25;;;;;;;3.15;0.90;;;9.10;99.90;;;;;;5003469;28;20037;-61
2023/01/02 13:04:55;;;;;;;0.50;0.50;;;9.10;99.90;;;;;;4970025;28;20033;-61
2023/01/02 13:07:29;;;;;;;1.83;0.50;;;9.10;99.90;;;;;;5004758;28;20030;-61
2023/01/02 13:10:00;;;;;;;1.30;0.60;;;9.10;99.90;;;;;;5009297;28;20026;-61
2023/01/02 13:12:28;;;;;;;1.27;0.82;;;9.10;99.90;;;;;;5004905;28;20058;-60
2023/01/02 13:15:07;;;;;;;1.80;1.27;;;9.10;99.90;;;;;;5008707;28;20038;-60